SLSB/SRJ METAR and TAF weather

Enter ICAO airport designator
Station Type Date Time Source
SLSB METAR 2020/06/18 12:00 UTC NOAA

SLSB 181200Z 00000KT 9999 NSC 20/20 Q1012 A2991 HR97 CI RWY NML


Station Type Date Time Source
SLSB Decoded METAR 2020/06/18 12:00 UTC NOAA

San Borja, Bolivia (SLSB) 14-52S 066-52W
Jun 18, 2020 - 08:00 AM EDT / 2020.06.18 1200 UTC
Wind: Calm:0
Visibility: greater than 7 mile(s):0
Temperature: 68 F (20 C)
Dew Point: 68 F (20 C)
Relative Humidity: 100%
Pressure (altimeter): 29.91 in. Hg (1012 hPa)
ob: SLSB 181200Z 00000KT 9999 NSC 20/20 Q1012 A2991 HR97 CI RWY NML
cycle: 12

Station Type Date Time Source
SLSB TAF UTC NOAA

Error!

Example: see airport list